sensor_id;sensor_type;location;lat;lon;timestamp;temperature;humidity
49821;DHT22;36893;52.520;13.450;2022-07-30T00:05:37;27.00;62.20
49821;DHT22;36893;52.520;13.450;2022-07-30T00:15:37;27.10;62.20
49821;DHT22;36893;52.520;13.450;2022-07-30T00:25:38;27.10;62.00
49821;DHT22;36893;52.520;13.450;2022-07-30T00:35:39;27.10;61.90
49821;DHT22;36893;52.520;13.450;2022-07-30T00:45:40;27.10;61.80
49821;DHT22;36893;52.520;13.450;2022-07-30T00:55:40;27.10;61.70
49821;DHT22;36893;52.520;13.450;2022-07-30T01:05:41;27.10;61.60
49821;DHT22;36893;52.520;13.450;2022-07-30T01:15:42;27.10;61.40
49821;DHT22;36893;52.520;13.450;2022-07-30T01:26:02;27.10;61.30
49821;DHT22;36893;52.520;13.450;2022-07-30T01:36:07;27.10;61.30
49821;DHT22;36893;52.520;13.450;2022-07-30T01:46:13;27.10;61.20
49821;DHT22;36893;52.520;13.450;2022-07-30T01:56:16;27.10;61.10
49821;DHT22;36893;52.520;13.450;2022-07-30T02:06:20;27.10;61.00
49821;DHT22;36893;52.520;13.450;2022-07-30T02:16:35;27.20;60.90
49821;DHT22;36893;52.520;13.450;2022-07-30T02:26:38;27.20;60.90
49821;DHT22;36893;52.520;13.450;2022-07-30T02:36:41;27.20;60.70
49821;DHT22;36893;52.520;13.450;2022-07-30T02:46:44;27.20;60.70
49821;DHT22;36893;52.520;13.450;2022-07-30T02:56:47;27.20;60.50
49821;DHT22;36893;52.520;13.450;2022-07-30T03:06:49;27.20;60.40
49821;DHT22;36893;52.520;13.450;2022-07-30T03:16:56;27.20;60.30
49821;DHT22;36893;52.520;13.450;2022-07-30T03:26:58;27.20;61.10
49821;DHT22;36893;52.520;13.450;2022-07-30T03:37:00;27.20;60.10
49821;DHT22;36893;52.520;13.450;2022-07-30T03:47:05;27.20;60.00
49821;DHT22;36893;52.520;13.450;2022-07-30T03:57:08;27.20;60.00
49821;DHT22;36893;52.520;13.450;2022-07-30T04:07:08;27.20;60.00
49821;DHT22;36893;52.520;13.450;2022-07-30T04:17:26;27.30;60.00
49821;DHT22;36893;52.520;13.450;2022-07-30T04:27:30;27.30;59.90
49821;DHT22;36893;52.520;13.450;2022-07-30T04:37:32;27.20;59.70
49821;DHT22;36893;52.520;13.450;2022-07-30T04:47:32;27.30;59.70
49821;DHT22;36893;52.520;13.450;2022-07-30T04:57:34;27.30;59.60
49821;DHT22;36893;52.520;13.450;2022-07-30T05:07:37;27.30;59.60
49821;DHT22;36893;52.520;13.450;2022-07-30T05:17:38;27.30;59.50
49821;DHT22;36893;52.520;13.450;2022-07-30T05:27:39;27.30;59.40
49821;DHT22;36893;52.520;13.450;2022-07-30T05:37:39;27.30;59.30
49821;DHT22;36893;52.520;13.450;2022-07-30T05:47:40;27.30;59.30
49821;DHT22;36893;52.520;13.450;2022-07-30T05:57:41;27.30;59.20
49821;DHT22;36893;52.520;13.450;2022-07-30T06:07:41;27.30;59.10
49821;DHT22;36893;52.520;13.450;2022-07-30T06:17:43;27.30;59.70
49821;DHT22;36893;52.520;13.450;2022-07-30T06:27:44;27.40;59.10
49821;DHT22;36893;52.520;13.450;2022-07-30T06:37:45;27.40;59.70
49821;DHT22;36893;52.520;13.450;2022-07-30T06:47:45;27.40;59.00
49821;DHT22;36893;52.520;13.450;2022-07-30T06:57:46;27.40;58.90
49821;DHT22;36893;52.520;13.450;2022-07-30T07:07:47;27.40;58.90
49821;DHT22;36893;52.520;13.450;2022-07-30T07:17:47;27.30;58.90
49821;DHT22;36893;52.520;13.450;2022-07-30T07:27:48;27.30;58.90
49821;DHT22;36893;52.520;13.450;2022-07-30T07:37:49;27.40;58.90
49821;DHT22;36893;52.520;13.450;2022-07-30T07:47:49;27.40;58.80
49821;DHT22;36893;52.520;13.450;2022-07-30T07:57:50;27.00;58.70
49821;DHT22;36893;52.520;13.450;2022-07-30T08:07:51;26.70;58.80
49821;DHT22;36893;52.520;13.450;2022-07-30T08:17:51;26.50;58.90
49821;DHT22;36893;52.520;13.450;2022-07-30T08:27:52;26.40;58.90
49821;DHT22;36893;52.520;13.450;2022-07-30T08:37:53;26.40;58.80
49821;DHT22;36893;52.520;13.450;2022-07-30T08:48:01;26.40;58.70
49821;DHT22;36893;52.520;13.450;2022-07-30T08:58:04;26.50;58.60
49821;DHT22;36893;52.520;13.450;2022-07-30T09:08:05;26.60;58.50
49821;DHT22;36893;52.520;13.450;2022-07-30T09:18:06;26.70;58.50
49821;DHT22;36893;52.520;13.450;2022-07-30T09:28:08;26.70;59.00
49821;DHT22;36893;52.520;13.450;2022-07-30T09:38:11;26.80;58.40
49821;DHT22;36893;52.520;13.450;2022-07-30T09:48:22;26.90;58.30
49821;DHT22;36893;52.520;13.450;2022-07-30T09:58:36;27.00;58.30
49821;DHT22;36893;52.520;13.450;2022-07-30T10:08:46;27.00;58.30
49821;DHT22;36893;52.520;13.450;2022-07-30T10:18:49;27.00;58.20
49821;DHT22;36893;52.520;13.450;2022-07-30T10:28:51;27.00;58.20
49821;DHT22;36893;52.520;13.450;2022-07-30T10:38:53;27.10;58.30
49821;DHT22;36893;52.520;13.450;2022-07-30T10:48:54;27.00;58.30
49821;DHT22;36893;52.520;13.450;2022-07-30T10:59:09;27.10;58.30
49821;DHT22;36893;52.520;13.450;2022-07-30T11:09:35;27.10;58.40
49821;DHT22;36893;52.520;13.450;2022-07-30T11:40:16;27.10;58.40
49821;DHT22;36893;52.520;13.450;2022-07-30T11:50:27;27.20;58.40
49821;DHT22;36893;52.520;13.450;2022-07-30T12:00:40;27.20;58.40
49821;DHT22;36893;52.520;13.450;2022-07-30T12:10:58;27.20;58.30
49821;DHT22;36893;52.520;13.450;2022-07-30T12:21:02;27.20;58.30
49821;DHT22;36893;52.520;13.450;2022-07-30T12:31:03;27.20;58.20
49821;DHT22;36893;52.520;13.450;2022-07-30T12:41:05;27.20;58.20
49821;DHT22;36893;52.520;13.450;2022-07-30T12:51:07;27.30;58.20
49821;DHT22;36893;52.520;13.450;2022-07-30T13:01:09;27.20;58.00
49821;DHT22;36893;52.520;13.450;2022-07-30T13:11:10;27.30;58.00
49821;DHT22;36893;52.520;13.450;2022-07-30T13:21:11;27.30;57.90
49821;DHT22;36893;52.520;13.450;2022-07-30T13:31:13;27.30;57.80
49821;DHT22;36893;52.520;13.450;2022-07-30T13:41:13;27.30;57.70
49821;DHT22;36893;52.520;13.450;2022-07-30T13:51:16;27.30;57.60
49821;DHT22;36893;52.520;13.450;2022-07-30T14:01:17;27.30;57.50
49821;DHT22;36893;52.520;13.450;2022-07-30T14:11:17;27.30;57.40
49821;DHT22;36893;52.520;13.450;2022-07-30T14:21:18;27.30;57.40
49821;DHT22;36893;52.520;13.450;2022-07-30T14:31:19;27.30;57.20
49821;DHT22;36893;52.520;13.450;2022-07-30T14:41:19;27.40;57.30
49821;DHT22;36893;52.520;13.450;2022-07-30T14:51:20;27.40;57.20
49821;DHT22;36893;52.520;13.450;2022-07-30T15:01:21;27.40;57.10
49821;DHT22;36893;52.520;13.450;2022-07-30T15:11:22;27.40;57.00
49821;DHT22;36893;52.520;13.450;2022-07-30T15:21:23;27.40;57.00
49821;DHT22;36893;52.520;13.450;2022-07-30T15:31:24;27.40;56.80
49821;DHT22;36893;52.520;13.450;2022-07-30T15:41:24;27.40;56.80
49821;DHT22;36893;52.520;13.450;2022-07-30T15:51:25;27.40;56.70
49821;DHT22;36893;52.520;13.450;2022-07-30T16:01:27;27.50;56.70
49821;DHT22;36893;52.520;13.450;2022-07-30T16:11:27;27.50;56.50
49821;DHT22;36893;52.520;13.450;2022-07-30T16:21:28;27.50;56.40
49821;DHT22;36893;52.520;13.450;2022-07-30T16:31:29;27.50;56.20
49821;DHT22;36893;52.520;13.450;2022-07-30T16:41:29;27.50;56.10
49821;DHT22;36893;52.520;13.450;2022-07-30T16:51:30;27.50;55.90
49821;DHT22;36893;52.520;13.450;2022-07-30T17:01:31;27.50;55.80
49821;DHT22;36893;52.520;13.450;2022-07-30T17:11:31;27.50;55.70
49821;DHT22;36893;52.520;13.450;2022-07-30T17:21:32;27.50;55.60
49821;DHT22;36893;52.520;13.450;2022-07-30T17:31:33;27.50;55.40
49821;DHT22;36893;52.520;13.450;2022-07-30T17:41:34;27.50;55.30
49821;DHT22;36893;52.520;13.450;2022-07-30T17:51:34;27.50;55.10
49821;DHT22;36893;52.520;13.450;2022-07-30T18:01:35;27.50;54.70
49821;DHT22;36893;52.520;13.450;2022-07-30T18:11:36;27.50;54.50
49821;DHT22;36893;52.520;13.450;2022-07-30T18:21:37;27.50;54.20
49821;DHT22;36893;52.520;13.450;2022-07-30T18:31:37;27.60;53.90
49821;DHT22;36893;52.520;13.450;2022-07-30T18:41:38;27.60;53.60
49821;DHT22;36893;52.520;13.450;2022-07-30T18:51:39;27.60;53.30
49821;DHT22;36893;52.520;13.450;2022-07-30T19:01:39;27.60;53.20
49821;DHT22;36893;52.520;13.450;2022-07-30T19:11:40;27.60;52.90
49821;DHT22;36893;52.520;13.450;2022-07-30T19:21:41;27.60;52.70
49821;DHT22;36893;52.520;13.450;2022-07-30T19:31:42;27.70;52.80
49821;DHT22;36893;52.520;13.450;2022-07-30T19:41:43;27.70;52.90
49821;DHT22;36893;52.520;13.450;2022-07-30T19:51:43;27.70;53.30
49821;DHT22;36893;52.520;13.450;2022-07-30T20:01:44;27.60;53.70
49821;DHT22;36893;52.520;13.450;2022-07-30T20:11:45;27.60;54.20
49821;DHT22;36893;52.520;13.450;2022-07-30T20:21:46;27.50;54.40
49821;DHT22;36893;52.520;13.450;2022-07-30T20:31:47;27.40;54.70
49821;DHT22;36893;52.520;13.450;2022-07-30T20:41:48;27.30;54.90
49821;DHT22;36893;52.520;13.450;2022-07-30T20:51:48;27.30;55.20
49821;DHT22;36893;52.520;13.450;2022-07-30T21:01:50;27.20;55.30
49821;DHT22;36893;52.520;13.450;2022-07-30T21:11:51;27.20;55.40
49821;DHT22;36893;52.520;13.450;2022-07-30T21:21:52;27.20;55.50
49821;DHT22;36893;52.520;13.450;2022-07-30T21:31:53;27.00;55.70
49821;DHT22;36893;52.520;13.450;2022-07-30T21:41:54;26.90;55.90
49821;DHT22;36893;52.520;13.450;2022-07-30T21:51:54;27.00;56.00
49821;DHT22;36893;52.520;13.450;2022-07-30T22:01:55;26.90;56.20
49821;DHT22;36893;52.520;13.450;2022-07-30T22:11:56;26.80;56.90
49821;DHT22;36893;52.520;13.450;2022-07-30T22:21:56;26.70;56.50
49821;DHT22;36893;52.520;13.450;2022-07-30T22:31:57;26.70;56.60
49821;DHT22;36893;52.520;13.450;2022-07-30T22:41:58;26.70;56.80
49821;DHT22;36893;52.520;13.450;2022-07-30T22:51:59;26.60;57.00
49821;DHT22;36893;52.520;13.450;2022-07-30T23:01:59;26.50;57.10
49821;DHT22;36893;52.520;13.450;2022-07-30T23:12:00;26.50;57.20
49821;DHT22;36893;52.520;13.450;2022-07-30T23:22:00;26.30;57.50
49821;DHT22;36893;52.520;13.450;2022-07-30T23:32:01;26.20;57.70
49821;DHT22;36893;52.520;13.450;2022-07-30T23:42:02;26.20;57.70
49821;DHT22;36893;52.520;13.450;2022-07-30T23:52:03;26.00;58.00
